sensor_id;sensor_type;location;lat;lon;timestamp;temperature;humidity
7016;DHT22;3548;48.402;9.990;2023-12-22T00:01:24;7.00;99.90
7016;DHT22;3548;48.402;9.990;2023-12-22T00:03:49;6.70;99.90
7016;DHT22;3548;48.402;9.990;2023-12-22T00:06:15;6.30;99.90
7016;DHT22;3548;48.402;9.990;2023-12-22T00:08:41;6.10;99.90
7016;DHT22;3548;48.402;9.990;2023-12-22T00:11:07;5.80;99.90
7016;DHT22;3548;48.402;9.990;2023-12-22T00:13:33;5.70;99.90
7016;DHT22;3548;48.402;9.990;2023-12-22T00:15:59;5.70;99.90
7016;DHT22;3548;48.402;9.990;2023-12-22T00:18:26;5.70;99.90
7016;DHT22;3548;48.402;9.990;2023-12-22T00:20:51;5.70;99.90
7016;DHT22;3548;48.402;9.990;2023-12-22T00:23:17;5.70;99.90
7016;DHT22;3548;48.402;9.990;2023-12-22T00:25:42;5.80;99.90
7016;DHT22;3548;48.402;9.990;2023-12-22T00:28:08;5.80;99.90
7016;DHT22;3548;48.402;9.990;2023-12-22T00:30:33;5.80;99.90
7016;DHT22;3548;48.402;9.990;2023-12-22T00:32:59;5.80;99.90
7016;DHT22;3548;48.402;9.990;2023-12-22T00:35:24;5.80;99.90
7016;DHT22;3548;48.402;9.990;2023-12-22T00:37:50;5.80;99.90
7016;DHT22;3548;48.402;9.990;2023-12-22T00:40:16;5.80;99.90
7016;DHT22;3548;48.402;9.990;2023-12-22T00:42:41;5.80;99.90
7016;DHT22;3548;48.402;9.990;2023-12-22T00:45:07;5.70;99.90
7016;DHT22;3548;48.402;9.990;2023-12-22T00:47:33;5.70;99.90
7016;DHT22;3548;48.402;9.990;2023-12-22T00:50:01;5.70;99.90
7016;DHT22;3548;48.402;9.990;2023-12-22T00:52:27;5.70;99.90
7016;DHT22;3548;48.402;9.990;2023-12-22T00:54:52;5.70;99.90
7016;DHT22;3548;48.402;9.990;2023-12-22T00:57:18;5.70;99.90
7016;DHT22;3548;48.402;9.990;2023-12-22T00:59:43;5.70;99.90
7016;DHT22;3548;48.402;9.990;2023-12-22T01:02:13;5.70;99.90
7016;DHT22;3548;48.402;9.990;2023-12-22T01:04:39;5.70;99.90
7016;DHT22;3548;48.402;9.990;2023-12-22T01:07:10;5.80;99.90
7016;DHT22;3548;48.402;9.990;2023-12-22T01:09:36;5.90;99.90
7016;DHT22;3548;48.402;9.990;2023-12-22T01:12:03;6.00;99.90
7016;DHT22;3548;48.402;9.990;2023-12-22T01:14:29;6.10;99.90
7016;DHT22;3548;48.402;9.990;2023-12-22T01:16:55;6.20;99.90
7016;DHT22;3548;48.402;9.990;2023-12-22T01:19:21;6.40;99.90
7016;DHT22;3548;48.402;9.990;2023-12-22T01:21:46;6.50;99.90
7016;DHT22;3548;48.402;9.990;2023-12-22T01:24:12;6.60;99.90
7016;DHT22;3548;48.402;9.990;2023-12-22T01:26:38;6.80;99.90
7016;DHT22;3548;48.402;9.990;2023-12-22T01:29:03;6.80;99.90
7016;DHT22;3548;48.402;9.990;2023-12-22T01:31:29;6.90;99.90
7016;DHT22;3548;48.402;9.990;2023-12-22T01:33:54;7.00;99.90
7016;DHT22;3548;48.402;9.990;2023-12-22T01:36:20;7.00;99.90
7016;DHT22;3548;48.402;9.990;2023-12-22T01:38:45;7.10;99.90
7016;DHT22;3548;48.402;9.990;2023-12-22T01:41:11;7.10;99.90
7016;DHT22;3548;48.402;9.990;2023-12-22T01:43:36;7.10;99.90
7016;DHT22;3548;48.402;9.990;2023-12-22T01:46:02;7.10;99.90
7016;DHT22;3548;48.402;9.990;2023-12-22T01:48:28;7.10;99.90
7016;DHT22;3548;48.402;9.990;2023-12-22T01:50:55;7.00;99.90
7016;DHT22;3548;48.402;9.990;2023-12-22T01:53:22;7.00;99.90
7016;DHT22;3548;48.402;9.990;2023-12-22T01:55:50;7.00;99.90
7016;DHT22;3548;48.402;9.990;2023-12-22T01:58:17;7.00;99.90
7016;DHT22;3548;48.402;9.990;2023-12-22T02:00:43;7.00;99.90
7016;DHT22;3548;48.402;9.990;2023-12-22T02:03:09;7.00;99.90
7016;DHT22;3548;48.402;9.990;2023-12-22T02:05:34;7.00;99.90
7016;DHT22;3548;48.402;9.990;2023-12-22T02:08:00;7.00;99.90
7016;DHT22;3548;48.402;9.990;2023-12-22T02:10:26;7.10;99.90
7016;DHT22;3548;48.402;9.990;2023-12-22T02:12:52;7.10;99.90
7016;DHT22;3548;48.402;9.990;2023-12-22T02:15:17;7.10;99.90
7016;DHT22;3548;48.402;9.990;2023-12-22T02:17:56;7.00;99.90
7016;DHT22;3548;48.402;9.990;2023-12-22T02:20:24;7.00;99.90
7016;DHT22;3548;48.402;9.990;2023-12-22T02:22:53;7.00;99.90
7016;DHT22;3548;48.402;9.990;2023-12-22T02:25:19;7.10;99.90
7016;DHT22;3548;48.402;9.990;2023-12-22T02:28:03;7.00;99.90
7016;DHT22;3548;48.402;9.990;2023-12-22T02:33:00;7.00;99.90
7016;DHT22;3548;48.402;9.990;2023-12-22T02:35:28;7.00;99.90
7016;DHT22;3548;48.402;9.990;2023-12-22T02:37:56;7.00;99.90
7016;DHT22;3548;48.402;9.990;2023-12-22T02:40:23;7.00;99.90
7016;DHT22;3548;48.402;9.990;2023-12-22T02:42:49;6.90;99.90
7016;DHT22;3548;48.402;9.990;2023-12-22T02:45:17;6.90;99.90
7016;DHT22;3548;48.402;9.990;2023-12-22T02:47:43;6.90;99.90
7016;DHT22;3548;48.402;9.990;2023-12-22T02:50:09;6.90;99.90
7016;DHT22;3548;48.402;9.990;2023-12-22T02:52:35;6.90;99.90
7016;DHT22;3548;48.402;9.990;2023-12-22T02:55:01;6.90;99.90
7016;DHT22;3548;48.402;9.990;2023-12-22T02:57:27;6.90;99.90
7016;DHT22;3548;48.402;9.990;2023-12-22T02:59:52;6.90;99.90
7016;DHT22;3548;48.402;9.990;2023-12-22T03:02:18;6.90;99.90
7016;DHT22;3548;48.402;9.990;2023-12-22T03:04:44;6.90;99.90
7016;DHT22;3548;48.402;9.990;2023-12-22T03:07:11;6.90;99.90
7016;DHT22;3548;48.402;9.990;2023-12-22T03:09:37;6.80;99.90
7016;DHT22;3548;48.402;9.990;2023-12-22T03:12:03;6.80;99.90
7016;DHT22;3548;48.402;9.990;2023-12-22T03:14:31;6.80;99.90
7016;DHT22;3548;48.402;9.990;2023-12-22T03:17:00;6.80;99.90
7016;DHT22;3548;48.402;9.990;2023-12-22T03:19:26;6.80;99.90
7016;DHT22;3548;48.402;9.990;2023-12-22T03:21:52;6.80;99.90
7016;DHT22;3548;48.402;9.990;2023-12-22T03:24:18;6.80;99.90
7016;DHT22;3548;48.402;9.990;2023-12-22T03:26:45;6.80;99.90
7016;DHT22;3548;48.402;9.990;2023-12-22T03:29:11;6.80;99.90
7016;DHT22;3548;48.402;9.990;2023-12-22T03:31:36;6.80;99.90
7016;DHT22;3548;48.402;9.990;2023-12-22T03:34:02;6.80;99.90
7016;DHT22;3548;48.402;9.990;2023-12-22T03:36:27;6.80;99.90
7016;DHT22;3548;48.402;9.990;2023-12-22T03:38:53;6.80;99.90
7016;DHT22;3548;48.402;9.990;2023-12-22T03:41:18;6.80;99.90
7016;DHT22;3548;48.402;9.990;2023-12-22T03:43:44;6.80;99.90
7016;DHT22;3548;48.402;9.990;2023-12-22T03:46:09;6.80;99.90
7016;DHT22;3548;48.402;9.990;2023-12-22T03:48:35;6.80;99.90
7016;DHT22;3548;48.402;9.990;2023-12-22T03:51:00;6.90;99.90
7016;DHT22;3548;48.402;9.990;2023-12-22T03:53:26;6.90;99.90
7016;DHT22;3548;48.402;9.990;2023-12-22T03:55:51;7.00;99.90
7016;DHT22;3548;48.402;9.990;2023-12-22T03:58:17;7.00;99.90
7016;DHT22;3548;48.402;9.990;2023-12-22T04:00:42;7.00;99.90
7016;DHT22;3548;48.402;9.990;2023-12-22T04:03:08;7.00;99.90
7016;DHT22;3548;48.402;9.990;2023-12-22T04:05:33;7.00;99.90
7016;DHT22;3548;48.402;9.990;2023-12-22T04:07:59;7.00;99.90
7016;DHT22;3548;48.402;9.990;2023-12-22T04:10:24;7.00;99.90
7016;DHT22;3548;48.402;9.990;2023-12-22T04:12:50;7.00;99.90
7016;DHT22;3548;48.402;9.990;2023-12-22T04:15:15;7.00;99.90
7016;DHT22;3548;48.402;9.990;2023-12-22T04:17:41;7.00;99.90
7016;DHT22;3548;48.402;9.990;2023-12-22T04:20:07;7.00;99.90
7016;DHT22;3548;48.402;9.990;2023-12-22T04:22:33;7.00;99.90
7016;DHT22;3548;48.402;9.990;2023-12-22T04:24:58;7.00;99.90
7016;DHT22;3548;48.402;9.990;2023-12-22T04:27:24;7.00;99.90
7016;DHT22;3548;48.402;9.990;2023-12-22T04:29:49;7.00;99.90
7016;DHT22;3548;48.402;9.990;2023-12-22T04:32:15;7.00;99.90
7016;DHT22;3548;48.402;9.990;2023-12-22T04:34:40;7.00;99.90
7016;DHT22;3548;48.402;9.990;2023-12-22T04:37:06;7.00;99.90
7016;DHT22;3548;48.402;9.990;2023-12-22T04:39:32;6.90;99.90
7016;DHT22;3548;48.402;9.990;2023-12-22T04:41:57;6.80;99.90
7016;DHT22;3548;48.402;9.990;2023-12-22T04:44:23;6.70;99.90
7016;DHT22;3548;48.402;9.990;2023-12-22T04:46:49;6.60;99.90
7016;DHT22;3548;48.402;9.990;2023-12-22T04:49:14;6.50;99.90
7016;DHT22;3548;48.402;9.990;2023-12-22T04:51:40;6.40;99.90
7016;DHT22;3548;48.402;9.990;2023-12-22T04:54:05;6.30;99.90
7016;DHT22;3548;48.402;9.990;2023-12-22T04:56:31;6.30;99.90
7016;DHT22;3548;48.402;9.990;2023-12-22T04:58:57;6.30;99.90
7016;DHT22;3548;48.402;9.990;2023-12-22T05:01:23;6.20;99.90
7016;DHT22;3548;48.402;9.990;2023-12-22T05:03:48;6.20;99.90
7016;DHT22;3548;48.402;9.990;2023-12-22T05:06:14;6.10;99.90
7016;DHT22;3548;48.402;9.990;2023-12-22T05:08:39;6.10;99.90
7016;DHT22;3548;48.402;9.990;2023-12-22T05:11:05;6.10;99.90
7016;DHT22;3548;48.402;9.990;2023-12-22T05:13:30;6.10;99.90
7016;DHT22;3548;48.402;9.990;2023-12-22T05:15:56;6.10;99.90
7016;DHT22;3548;48.402;9.990;2023-12-22T05:18:21;6.10;99.90
7016;DHT22;3548;48.402;9.990;2023-12-22T05:20:47;6.10;99.90
7016;DHT22;3548;48.402;9.990;2023-12-22T05:23:12;6.10;99.90
7016;DHT22;3548;48.402;9.990;2023-12-22T05:25:38;6.10;99.90
7016;DHT22;3548;48.402;9.990;2023-12-22T05:28:04;6.20;99.90
7016;DHT22;3548;48.402;9.990;2023-12-22T05:30:29;6.20;99.90
7016;DHT22;3548;48.402;9.990;2023-12-22T05:32:55;6.30;99.90
7016;DHT22;3548;48.402;9.990;2023-12-22T05:35:20;6.30;99.90
7016;DHT22;3548;48.402;9.990;2023-12-22T05:37:46;6.30;99.90
7016;DHT22;3548;48.402;9.990;2023-12-22T05:40:13;6.40;99.90
7016;DHT22;3548;48.402;9.990;2023-12-22T05:42:39;6.40;99.90
7016;DHT22;3548;48.402;9.990;2023-12-22T05:45:05;6.40;99.90
7016;DHT22;3548;48.402;9.990;2023-12-22T05:47:32;6.40;99.90
7016;DHT22;3548;48.402;9.990;2023-12-22T05:49:57;6.50;99.90
7016;DHT22;3548;48.402;9.990;2023-12-22T05:52:23;6.60;99.90
7016;DHT22;3548;48.402;9.990;2023-12-22T05:54:48;6.60;99.90
7016;DHT22;3548;48.402;9.990;2023-12-22T05:57:14;6.60;99.90
7016;DHT22;3548;48.402;9.990;2023-12-22T05:59:40;6.60;99.90
7016;DHT22;3548;48.402;9.990;2023-12-22T06:02:05;6.60;99.90
7016;DHT22;3548;48.402;9.990;2023-12-22T06:04:31;6.60;99.90
7016;DHT22;3548;48.402;9.990;2023-12-22T06:06:56;6.60;99.90
7016;DHT22;3548;48.402;9.990;2023-12-22T06:09:22;6.70;99.90
7016;DHT22;3548;48.402;9.990;2023-12-22T06:11:48;6.70;99.90
7016;DHT22;3548;48.402;9.990;2023-12-22T06:14:14;6.80;99.90
7016;DHT22;3548;48.402;9.990;2023-12-22T06:16:40;6.80;99.90
7016;DHT22;3548;48.402;9.990;2023-12-22T06:19:05;6.80;99.90
7016;DHT22;3548;48.402;9.990;2023-12-22T06:21:31;6.70;99.90
7016;DHT22;3548;48.402;9.990;2023-12-22T06:23:56;6.50;99.90
7016;DHT22;3548;48.402;9.990;2023-12-22T06:26:22;6.30;99.90
7016;DHT22;3548;48.402;9.990;2023-12-22T06:28:47;6.20;99.90
7016;DHT22;3548;48.402;9.990;2023-12-22T06:31:17;6.10;99.90
7016;DHT22;3548;48.402;9.990;2023-12-22T06:33:44;6.00;99.90
7016;DHT22;3548;48.402;9.990;2023-12-22T06:36:21;6.00;99.90
7016;DHT22;3548;48.402;9.990;2023-12-22T06:38:47;5.90;99.90
7016;DHT22;3548;48.402;9.990;2023-12-22T06:41:27;5.90;99.90
7016;DHT22;3548;48.402;9.990;2023-12-22T06:43:53;6.00;99.90
7016;DHT22;3548;48.402;9.990;2023-12-22T06:46:20;6.00;99.90
7016;DHT22;3548;48.402;9.990;2023-12-22T06:48:46;6.00;99.90
7016;DHT22;3548;48.402;9.990;2023-12-22T06:51:28;6.10;99.90
7016;DHT22;3548;48.402;9.990;2023-12-22T06:53:56;6.10;99.90
7016;DHT22;3548;48.402;9.990;2023-12-22T06:56:26;6.10;99.90
7016;DHT22;3548;48.402;9.990;2023-12-22T06:58:53;6.10;99.90
7016;DHT22;3548;48.402;9.990;2023-12-22T07:03:49;6.10;99.90
7016;DHT22;3548;48.402;9.990;2023-12-22T07:06:18;6.10;99.90
7016;DHT22;3548;48.402;9.990;2023-12-22T07:08:44;6.00;99.90
7016;DHT22;3548;48.402;9.990;2023-12-22T07:11:10;6.10;99.90
7016;DHT22;3548;48.402;9.990;2023-12-22T07:13:36;6.10;99.90
7016;DHT22;3548;48.402;9.990;2023-12-22T07:16:02;6.10;99.90
7016;DHT22;3548;48.402;9.990;2023-12-22T07:18:28;6.10;99.90
7016;DHT22;3548;48.402;9.990;2023-12-22T07:21:00;6.20;99.90
7016;DHT22;3548;48.402;9.990;2023-12-22T07:23:25;6.20;99.90
7016;DHT22;3548;48.402;9.990;2023-12-22T07:25:51;6.20;99.90
7016;DHT22;3548;48.402;9.990;2023-12-22T07:28:16;6.20;99.90
7016;DHT22;3548;48.402;9.990;2023-12-22T07:30:42;6.20;99.90
7016;DHT22;3548;48.402;9.990;2023-12-22T07:33:08;6.20;99.90
7016;DHT22;3548;48.402;9.990;2023-12-22T07:35:33;6.20;99.90
7016;DHT22;3548;48.402;9.990;2023-12-22T07:37:59;6.10;99.90
7016;DHT22;3548;48.402;9.990;2023-12-22T07:40:25;6.10;99.90
7016;DHT22;3548;48.402;9.990;2023-12-22T07:42:51;6.00;99.90
7016;DHT22;3548;48.402;9.990;2023-12-22T07:45:16;6.00;99.90
7016;DHT22;3548;48.402;9.990;2023-12-22T07:47:42;6.00;99.90
7016;DHT22;3548;48.402;9.990;2023-12-22T07:50:08;6.00;99.90
7016;DHT22;3548;48.402;9.990;2023-12-22T07:52:37;6.00;99.90
7016;DHT22;3548;48.402;9.990;2023-12-22T07:55:08;6.00;99.90
7016;DHT22;3548;48.402;9.990;2023-12-22T07:57:36;6.10;99.90
7016;DHT22;3548;48.402;9.990;2023-12-22T08:00:02;6.10;99.90
7016;DHT22;3548;48.402;9.990;2023-12-22T08:02:28;6.20;99.90
7016;DHT22;3548;48.402;9.990;2023-12-22T08:04:54;6.20;99.90
7016;DHT22;3548;48.402;9.990;2023-12-22T08:07:19;6.20;99.90
7016;DHT22;3548;48.402;9.990;2023-12-22T08:09:45;6.30;99.90
7016;DHT22;3548;48.402;9.990;2023-12-22T08:12:10;6.40;99.90
7016;DHT22;3548;48.402;9.990;2023-12-22T08:14:36;6.40;99.90
7016;DHT22;3548;48.402;9.990;2023-12-22T08:17:01;6.50;99.90
7016;DHT22;3548;48.402;9.990;2023-12-22T08:19:27;6.50;99.90
7016;DHT22;3548;48.402;9.990;2023-12-22T08:21:53;6.50;99.90
7016;DHT22;3548;48.402;9.990;2023-12-22T08:24:20;6.50;99.90
7016;DHT22;3548;48.402;9.990;2023-12-22T08:26:45;6.40;99.90
7016;DHT22;3548;48.402;9.990;2023-12-22T08:29:11;6.40;99.90
7016;DHT22;3548;48.402;9.990;2023-12-22T08:31:36;6.40;99.90
7016;DHT22;3548;48.402;9.990;2023-12-22T08:34:02;6.30;99.90
7016;DHT22;3548;48.402;9.990;2023-12-22T08:36:27;6.30;99.90
7016;DHT22;3548;48.402;9.990;2023-12-22T08:38:53;6.20;99.90
7016;DHT22;3548;48.402;9.990;2023-12-22T08:41:18;6.10;99.90
7016;DHT22;3548;48.402;9.990;2023-12-22T08:43:44;6.10;99.90
7016;DHT22;3548;48.402;9.990;2023-12-22T08:46:10;6.00;99.90
7016;DHT22;3548;48.402;9.990;2023-12-22T08:48:35;6.00;99.90
7016;DHT22;3548;48.402;9.990;2023-12-22T08:51:01;5.90;99.90
7016;DHT22;3548;48.402;9.990;2023-12-22T08:53:26;5.90;99.90
7016;DHT22;3548;48.402;9.990;2023-12-22T08:55:55;6.00;99.90
7016;DHT22;3548;48.402;9.990;2023-12-22T08:58:21;5.90;99.90
7016;DHT22;3548;48.402;9.990;2023-12-22T09:00:47;5.90;99.90
7016;DHT22;3548;48.402;9.990;2023-12-22T09:03:13;5.90;99.90
7016;DHT22;3548;48.402;9.990;2023-12-22T09:05:38;6.00;99.90
7016;DHT22;3548;48.402;9.990;2023-12-22T09:08:04;6.00;99.90
7016;DHT22;3548;48.402;9.990;2023-12-22T09:10:31;6.10;99.90
7016;DHT22;3548;48.402;9.990;2023-12-22T09:12:57;6.20;99.90
7016;DHT22;3548;48.402;9.990;2023-12-22T09:15:23;6.20;99.90
7016;DHT22;3548;48.402;9.990;2023-12-22T09:17:49;6.30;99.90
7016;DHT22;3548;48.402;9.990;2023-12-22T09:20:15;6.40;99.90
7016;DHT22;3548;48.402;9.990;2023-12-22T09:22:40;6.50;99.90
7016;DHT22;3548;48.402;9.990;2023-12-22T09:25:06;6.50;99.90
7016;DHT22;3548;48.402;9.990;2023-12-22T09:27:34;6.60;99.90
7016;DHT22;3548;48.402;9.990;2023-12-22T09:29:59;6.60;99.90
7016;DHT22;3548;48.402;9.990;2023-12-22T09:32:25;6.60;99.90
7016;DHT22;3548;48.402;9.990;2023-12-22T09:34:52;6.70;99.90
7016;DHT22;3548;48.402;9.990;2023-12-22T09:37:17;6.70;99.90
7016;DHT22;3548;48.402;9.990;2023-12-22T09:39:43;6.70;99.90
7016;DHT22;3548;48.402;9.990;2023-12-22T09:42:08;6.80;99.90
7016;DHT22;3548;48.402;9.990;2023-12-22T09:44:36;6.80;99.90
7016;DHT22;3548;48.402;9.990;2023-12-22T09:47:04;6.80;99.90
7016;DHT22;3548;48.402;9.990;2023-12-22T09:49:33;6.90;99.90
7016;DHT22;3548;48.402;9.990;2023-12-22T09:51:59;6.90;99.90
7016;DHT22;3548;48.402;9.990;2023-12-22T09:54:26;7.00;99.90
7016;DHT22;3548;48.402;9.990;2023-12-22T09:56:53;7.00;99.90
7016;DHT22;3548;48.402;9.990;2023-12-22T09:59:19;7.00;99.90
7016;DHT22;3548;48.402;9.990;2023-12-22T10:01:47;7.00;99.90
7016;DHT22;3548;48.402;9.990;2023-12-22T10:04:14;7.00;99.90
7016;DHT22;3548;48.402;9.990;2023-12-22T10:06:40;7.00;99.90
7016;DHT22;3548;48.402;9.990;2023-12-22T10:09:06;7.00;99.90
7016;DHT22;3548;48.402;9.990;2023-12-22T10:11:35;7.00;99.90
7016;DHT22;3548;48.402;9.990;2023-12-22T10:14:02;6.90;99.90
7016;DHT22;3548;48.402;9.990;2023-12-22T10:16:28;6.90;99.90
7016;DHT22;3548;48.402;9.990;2023-12-22T10:18:54;6.90;99.90
7016;DHT22;3548;48.402;9.990;2023-12-22T10:21:19;7.00;99.90
7016;DHT22;3548;48.402;9.990;2023-12-22T10:23:45;7.00;99.90
7016;DHT22;3548;48.402;9.990;2023-12-22T10:26:13;7.00;99.90
7016;DHT22;3548;48.402;9.990;2023-12-22T10:28:40;7.00;99.90
7016;DHT22;3548;48.402;9.990;2023-12-22T10:31:06;7.00;99.90
7016;DHT22;3548;48.402;9.990;2023-12-22T10:33:33;7.10;99.90
7016;DHT22;3548;48.402;9.990;2023-12-22T10:35:59;7.10;99.90
7016;DHT22;3548;48.402;9.990;2023-12-22T10:38:26;7.10;99.90
7016;DHT22;3548;48.402;9.990;2023-12-22T10:40:52;7.10;99.90
7016;DHT22;3548;48.402;9.990;2023-12-22T10:43:18;7.10;99.90
7016;DHT22;3548;48.402;9.990;2023-12-22T10:45:43;7.10;99.90
7016;DHT22;3548;48.402;9.990;2023-12-22T10:48:10;7.10;99.90
7016;DHT22;3548;48.402;9.990;2023-12-22T10:50:36;7.20;99.90
7016;DHT22;3548;48.402;9.990;2023-12-22T10:53:01;7.20;99.90
7016;DHT22;3548;48.402;9.990;2023-12-22T10:55:30;7.20;99.90
7016;DHT22;3548;48.402;9.990;2023-12-22T10:57:56;7.20;99.90
7016;DHT22;3548;48.402;9.990;2023-12-22T11:00:22;7.20;99.90
7016;DHT22;3548;48.402;9.990;2023-12-22T11:02:49;7.30;99.90
7016;DHT22;3548;48.402;9.990;2023-12-22T11:05:21;7.30;99.90
7016;DHT22;3548;48.402;9.990;2023-12-22T11:07:49;7.30;99.90
7016;DHT22;3548;48.402;9.990;2023-12-22T11:10:20;7.30;99.90
7016;DHT22;3548;48.402;9.990;2023-12-22T11:12:46;7.30;99.90
7016;DHT22;3548;48.402;9.990;2023-12-22T11:15:13;7.30;99.90
7016;DHT22;3548;48.402;9.990;2023-12-22T11:17:39;7.30;99.90
7016;DHT22;3548;48.402;9.990;2023-12-22T11:20:09;7.30;99.90
7016;DHT22;3548;48.402;9.990;2023-12-22T11:22:36;7.30;99.90
7016;DHT22;3548;48.402;9.990;2023-12-22T11:25:02;7.30;99.90
7016;DHT22;3548;48.402;9.990;2023-12-22T11:27:29;7.30;99.90
7016;DHT22;3548;48.402;9.990;2023-12-22T11:29:55;7.30;99.90
7016;DHT22;3548;48.402;9.990;2023-12-22T11:32:20;7.30;99.90
7016;DHT22;3548;48.402;9.990;2023-12-22T11:34:47;7.40;99.90
7016;DHT22;3548;48.402;9.990;2023-12-22T11:37:14;7.40;99.90
7016;DHT22;3548;48.402;9.990;2023-12-22T11:39:43;7.40;99.90
7016;DHT22;3548;48.402;9.990;2023-12-22T11:42:16;7.40;99.90
7016;DHT22;3548;48.402;9.990;2023-12-22T11:44:42;7.40;99.90
7016;DHT22;3548;48.402;9.990;2023-12-22T11:47:09;7.30;99.90
7016;DHT22;3548;48.402;9.990;2023-12-22T11:49:36;7.30;99.90
7016;DHT22;3548;48.402;9.990;2023-12-22T11:52:16;7.20;99.90
7016;DHT22;3548;48.402;9.990;2023-12-22T11:54:49;7.20;99.90
7016;DHT22;3548;48.402;9.990;2023-12-22T11:59:55;7.10;99.90
7016;DHT22;3548;48.402;9.990;2023-12-22T12:02:21;7.10;99.90
7016;DHT22;3548;48.402;9.990;2023-12-22T12:04:48;7.00;99.90
7016;DHT22;3548;48.402;9.990;2023-12-22T12:07:39;7.00;99.90
7016;DHT22;3548;48.402;9.990;2023-12-22T12:10:06;7.00;99.90
7016;DHT22;3548;48.402;9.990;2023-12-22T12:12:32;7.00;99.90
7016;DHT22;3548;48.402;9.990;2023-12-22T12:15:07;7.00;99.90
7016;DHT22;3548;48.402;9.990;2023-12-22T12:17:33;7.00;99.90
7016;DHT22;3548;48.402;9.990;2023-12-22T12:19:58;7.00;99.90
7016;DHT22;3548;48.402;9.990;2023-12-22T12:22:25;7.00;99.90
7016;DHT22;3548;48.402;9.990;2023-12-22T12:24:51;7.00;99.90
7016;DHT22;3548;48.402;9.990;2023-12-22T12:27:18;7.00;99.90
7016;DHT22;3548;48.402;9.990;2023-12-22T12:29:44;7.00;99.90
7016;DHT22;3548;48.402;9.990;2023-12-22T12:32:14;7.00;99.90
7016;DHT22;3548;48.402;9.990;2023-12-22T12:34:42;7.00;99.90
7016;DHT22;3548;48.402;9.990;2023-12-22T12:37:08;7.00;99.90
7016;DHT22;3548;48.402;9.990;2023-12-22T12:39:34;7.10;99.90
7016;DHT22;3548;48.402;9.990;2023-12-22T12:42:01;7.10;99.90
7016;DHT22;3548;48.402;9.990;2023-12-22T12:44:30;7.10;99.90
7016;DHT22;3548;48.402;9.990;2023-12-22T12:46:57;7.10;99.90
7016;DHT22;3548;48.402;9.990;2023-12-22T12:49:23;7.10;99.90
7016;DHT22;3548;48.402;9.990;2023-12-22T12:51:53;7.10;99.90
7016;DHT22;3548;48.402;9.990;2023-12-22T12:54:19;7.10;99.90
7016;DHT22;3548;48.402;9.990;2023-12-22T12:56:45;7.10;99.90
7016;DHT22;3548;48.402;9.990;2023-12-22T12:59:16;7.10;99.90
7016;DHT22;3548;48.402;9.990;2023-12-22T13:01:44;7.10;99.90
7016;DHT22;3548;48.402;9.990;2023-12-22T13:04:10;7.10;99.90
7016;DHT22;3548;48.402;9.990;2023-12-22T13:06:48;7.10;99.90
7016;DHT22;3548;48.402;9.990;2023-12-22T13:09:14;7.10;99.90
7016;DHT22;3548;48.402;9.990;2023-12-22T13:11:40;7.10;99.90
7016;DHT22;3548;48.402;9.990;2023-12-22T13:14:08;7.10;99.90
7016;DHT22;3548;48.402;9.990;2023-12-22T13:16:34;7.10;99.90
7016;DHT22;3548;48.402;9.990;2023-12-22T13:19:00;7.10;99.90
7016;DHT22;3548;48.402;9.990;2023-12-22T13:21:27;7.20;99.90
7016;DHT22;3548;48.402;9.990;2023-12-22T13:24:12;7.20;99.90
7016;DHT22;3548;48.402;9.990;2023-12-22T13:26:39;7.20;99.90
7016;DHT22;3548;48.402;9.990;2023-12-22T13:29:06;7.20;99.90
7016;DHT22;3548;48.402;9.990;2023-12-22T13:31:32;7.20;99.90
7016;DHT22;3548;48.402;9.990;2023-12-22T13:33:59;7.20;99.90
7016;DHT22;3548;48.402;9.990;2023-12-22T13:36:25;7.20;99.90
7016;DHT22;3548;48.402;9.990;2023-12-22T13:38:51;7.30;99.90
7016;DHT22;3548;48.402;9.990;2023-12-22T13:41:17;7.30;99.90
7016;DHT22;3548;48.402;9.990;2023-12-22T13:43:43;7.30;99.90
7016;DHT22;3548;48.402;9.990;2023-12-22T13:46:13;7.30;99.90
7016;DHT22;3548;48.402;9.990;2023-12-22T13:48:40;7.30;99.90
7016;DHT22;3548;48.402;9.990;2023-12-22T13:51:05;7.40;99.90
7016;DHT22;3548;48.402;9.990;2023-12-22T13:53:31;7.40;99.90
7016;DHT22;3548;48.402;9.990;2023-12-22T13:55:57;7.50;99.90
7016;DHT22;3548;48.402;9.990;2023-12-22T13:58:23;7.50;99.90
7016;DHT22;3548;48.402;9.990;2023-12-22T14:00:50;7.50;99.90
7016;DHT22;3548;48.402;9.990;2023-12-22T14:03:16;7.60;99.90
7016;DHT22;3548;48.402;9.990;2023-12-22T14:05:42;7.60;99.90
7016;DHT22;3548;48.402;9.990;2023-12-22T14:08:08;7.70;99.90
7016;DHT22;3548;48.402;9.990;2023-12-22T14:10:34;7.70;99.90
7016;DHT22;3548;48.402;9.990;2023-12-22T14:12:59;7.70;99.90
7016;DHT22;3548;48.402;9.990;2023-12-22T14:15:25;7.70;99.90
7016;DHT22;3548;48.402;9.990;2023-12-22T14:17:54;7.80;99.90
7016;DHT22;3548;48.402;9.990;2023-12-22T14:20:20;7.90;99.90
7016;DHT22;3548;48.402;9.990;2023-12-22T14:22:46;7.90;99.90
7016;DHT22;3548;48.402;9.990;2023-12-22T14:25:11;7.90;99.90
7016;DHT22;3548;48.402;9.990;2023-12-22T14:27:37;7.90;99.90
7016;DHT22;3548;48.402;9.990;2023-12-22T14:30:03;8.00;99.90
7016;DHT22;3548;48.402;9.990;2023-12-22T14:32:29;8.00;99.90
7016;DHT22;3548;48.402;9.990;2023-12-22T14:34:55;8.00;99.90
7016;DHT22;3548;48.402;9.990;2023-12-22T14:37:21;8.10;99.90
7016;DHT22;3548;48.402;9.990;2023-12-22T14:39:47;8.10;99.90
7016;DHT22;3548;48.402;9.990;2023-12-22T14:42:13;8.20;99.90
7016;DHT22;3548;48.402;9.990;2023-12-22T14:44:39;8.20;99.90
7016;DHT22;3548;48.402;9.990;2023-12-22T14:47:07;8.20;99.90
7016;DHT22;3548;48.402;9.990;2023-12-22T14:49:33;8.30;99.90
7016;DHT22;3548;48.402;9.990;2023-12-22T14:51:58;8.30;99.90
7016;DHT22;3548;48.402;9.990;2023-12-22T14:54:25;8.30;99.90
7016;DHT22;3548;48.402;9.990;2023-12-22T14:56:51;8.40;99.90
7016;DHT22;3548;48.402;9.990;2023-12-22T14:59:16;8.40;99.90
7016;DHT22;3548;48.402;9.990;2023-12-22T15:01:42;8.40;99.90
7016;DHT22;3548;48.402;9.990;2023-12-22T15:04:09;8.40;99.90
7016;DHT22;3548;48.402;9.990;2023-12-22T15:06:38;8.50;99.90
7016;DHT22;3548;48.402;9.990;2023-12-22T15:09:10;8.50;99.90
7016;DHT22;3548;48.402;9.990;2023-12-22T15:11:45;8.50;99.90
7016;DHT22;3548;48.402;9.990;2023-12-22T15:14:12;8.50;99.90
7016;DHT22;3548;48.402;9.990;2023-12-22T15:16:41;8.50;99.90
7016;DHT22;3548;48.402;9.990;2023-12-22T15:19:10;8.60;99.90
7016;DHT22;3548;48.402;9.990;2023-12-22T15:21:36;8.60;99.90
7016;DHT22;3548;48.402;9.990;2023-12-22T15:24:03;8.60;99.90
7016;DHT22;3548;48.402;9.990;2023-12-22T15:26:29;8.60;99.90
7016;DHT22;3548;48.402;9.990;2023-12-22T15:28:54;8.60;99.90
7016;DHT22;3548;48.402;9.990;2023-12-22T15:31:20;8.60;99.90
7016;DHT22;3548;48.402;9.990;2023-12-22T15:33:46;8.60;99.90
7016;DHT22;3548;48.402;9.990;2023-12-22T15:36:17;8.60;99.90
7016;DHT22;3548;48.402;9.990;2023-12-22T15:38:43;8.60;99.90
7016;DHT22;3548;48.402;9.990;2023-12-22T15:41:08;8.60;99.90
7016;DHT22;3548;48.402;9.990;2023-12-22T15:43:34;8.60;99.90
7016;DHT22;3548;48.402;9.990;2023-12-22T15:46:05;8.60;99.90
7016;DHT22;3548;48.402;9.990;2023-12-22T15:48:32;8.60;99.90
7016;DHT22;3548;48.402;9.990;2023-12-22T15:50:57;8.60;99.90
7016;DHT22;3548;48.402;9.990;2023-12-22T15:53:23;8.60;99.90
7016;DHT22;3548;48.402;9.990;2023-12-22T15:55:48;8.60;99.90
7016;DHT22;3548;48.402;9.990;2023-12-22T15:58:14;8.60;99.90
7016;DHT22;3548;48.402;9.990;2023-12-22T16:00:40;8.60;99.90
7016;DHT22;3548;48.402;9.990;2023-12-22T16:03:05;8.60;99.90
7016;DHT22;3548;48.402;9.990;2023-12-22T16:05:31;8.50;99.90
7016;DHT22;3548;48.402;9.990;2023-12-22T16:07:56;8.50;99.90
7016;DHT22;3548;48.402;9.990;2023-12-22T16:10:27;8.50;99.90
7016;DHT22;3548;48.402;9.990;2023-12-22T16:12:52;8.50;99.90
7016;DHT22;3548;48.402;9.990;2023-12-22T16:15:18;8.60;99.90
7016;DHT22;3548;48.402;9.990;2023-12-22T16:17:44;8.60;99.90
7016;DHT22;3548;48.402;9.990;2023-12-22T16:20:10;8.60;99.90